sensor_id;sensor_type;location;lat;lon;timestamp;pressure;altitude;pressure_sealevel;temperature;humidity
60918;BME280;46792;38.854;-9.384;2022-11-27T00:00:23;100369.28;;;11.57;92.93
60918;BME280;46792;38.854;-9.384;2022-11-27T00:02:24;100366.06;;;11.55;93.12
60918;BME280;46792;38.854;-9.384;2022-11-27T00:04:25;100363.00;;;11.51;93.35
60918;BME280;46792;38.854;-9.384;2022-11-27T00:06:27;100358.66;;;11.50;93.37
60918;BME280;46792;38.854;-9.384;2022-11-27T00:08:28;100361.88;;;11.47;93.37
60918;BME280;46792;38.854;-9.384;2022-11-27T00:10:28;100357.56;;;11.46;93.91
60918;BME280;46792;38.854;-9.384;2022-11-27T00:12:47;100354.00;;;11.46;94.12
60918;BME280;46792;38.854;-9.384;2022-11-27T00:14:48;100354.59;;;11.48;94.07
60918;BME280;46792;38.854;-9.384;2022-11-27T00:16:49;100349.97;;;11.48;94.30
60918;BME280;46792;38.854;-9.384;2022-11-27T00:18:50;100346.22;;;11.49;94.24
60918;BME280;46792;38.854;-9.384;2022-11-27T00:20:50;100351.63;;;11.49;94.45
60918;BME280;46792;38.854;-9.384;2022-11-27T00:22:51;100345.97;;;11.51;94.34
60918;BME280;46792;38.854;-9.384;2022-11-27T00:24:51;100341.94;;;11.53;94.38
60918;BME280;46792;38.854;-9.384;2022-11-27T00:26:52;100341.16;;;11.53;94.15
60918;BME280;46792;38.854;-9.384;2022-11-27T00:28:53;100339.75;;;11.50;94.19
60918;BME280;46792;38.854;-9.384;2022-11-27T00:31:03;100336.53;;;11.53;94.14
60918;BME280;46792;38.854;-9.384;2022-11-27T00:33:03;100335.97;;;11.51;94.29
60918;BME280;46792;38.854;-9.384;2022-11-27T00:35:04;100336.81;;;11.52;94.22
60918;BME280;46792;38.854;-9.384;2022-11-27T00:37:05;100332.19;;;11.52;94.39
60918;BME280;46792;38.854;-9.384;2022-11-27T00:39:06;100328.94;;;11.50;94.14
60918;BME280;46792;38.854;-9.384;2022-11-27T00:41:14;100325.72;;;11.53;93.71
60918;BME280;46792;38.854;-9.384;2022-11-27T00:43:14;100320.81;;;11.50;93.65
60918;BME280;46792;38.854;-9.384;2022-11-27T00:48:11;100319.19;;;11.49;93.34
60918;BME280;46792;38.854;-9.384;2022-11-27T00:50:12;100315.66;;;11.49;93.59
60918;BME280;46792;38.854;-9.384;2022-11-27T00:52:13;100309.94;;;11.45;93.55
60918;BME280;46792;38.854;-9.384;2022-11-27T00:54:13;100315.41;;;11.50;93.47
60918;BME280;46792;38.854;-9.384;2022-11-27T00:56:26;100307.06;;;11.52;93.63
60918;BME280;46792;38.854;-9.384;2022-11-27T00:58:27;100306.78;;;11.53;93.47
60918;BME280;46792;38.854;-9.384;2022-11-27T01:01:02;100302.44;;;11.52;93.24
60918;BME280;46792;38.854;-9.384;2022-11-27T01:03:03;100298.13;;;11.51;93.12
60918;BME280;46792;38.854;-9.384;2022-11-27T01:05:04;100299.19;;;11.50;93.01
60918;BME280;46792;38.854;-9.384;2022-11-27T01:07:05;100292.97;;;11.50;93.15
60918;BME280;46792;38.854;-9.384;2022-11-27T01:09:06;100288.88;;;11.47;92.77
60918;BME280;46792;38.854;-9.384;2022-11-27T01:11:35;100282.66;;;11.47;92.75
60918;BME280;46792;38.854;-9.384;2022-11-27T01:13:55;100283.97;;;11.44;92.52
60918;BME280;46792;38.854;-9.384;2022-11-27T01:16:08;100279.88;;;11.41;92.65
60918;BME280;46792;38.854;-9.384;2022-11-27T01:18:09;100282.84;;;11.40;92.76
60918;BME280;46792;38.854;-9.384;2022-11-27T01:22:48;100277.63;;;11.33;92.72
60918;BME280;46792;38.854;-9.384;2022-11-27T01:24:48;100281.09;;;11.29;92.86
60918;BME280;46792;38.854;-9.384;2022-11-27T01:26:49;100279.69;;;11.26;93.06
60918;BME280;46792;38.854;-9.384;2022-11-27T01:34:07;100274.41;;;11.14;93.55
60918;BME280;46792;38.854;-9.384;2022-11-27T01:36:11;100268.47;;;11.17;93.82
60918;BME280;46792;38.854;-9.384;2022-11-27T01:38:12;100264.97;;;11.17;94.27
60918;BME280;46792;38.854;-9.384;2022-11-27T01:40:12;100274.97;;;11.16;94.33
60918;BME280;46792;38.854;-9.384;2022-11-27T01:42:13;100269.00;;;11.14;94.51
60918;BME280;46792;38.854;-9.384;2022-11-27T01:44:52;100278.50;;;11.17;94.32
60918;BME280;46792;38.854;-9.384;2022-11-27T01:49:50;100273.09;;;11.17;94.33
60918;BME280;46792;38.854;-9.384;2022-11-27T01:52:09;100277.13;;;11.14;94.41
60918;BME280;46792;38.854;-9.384;2022-11-27T01:54:12;100275.47;;;11.13;94.32
60918;BME280;46792;38.854;-9.384;2022-11-27T01:56:14;100276.19;;;11.08;94.28
60918;BME280;46792;38.854;-9.384;2022-11-27T01:58:24;100269.72;;;11.09;94.37
60918;BME280;46792;38.854;-9.384;2022-11-27T02:00:26;100274.81;;;11.06;94.46
60918;BME280;46792;38.854;-9.384;2022-11-27T02:02:46;100270.97;;;11.02;94.88
60918;BME280;46792;38.854;-9.384;2022-11-27T02:04:46;100268.03;;;11.03;94.86
60918;BME280;46792;38.854;-9.384;2022-11-27T02:07:08;100275.81;;;11.00;95.03
60918;BME280;46792;38.854;-9.384;2022-11-27T02:09:28;100277.97;;;10.98;95.21
60918;BME280;46792;38.854;-9.384;2022-11-27T02:12:08;100274.44;;;10.97;95.50
60918;BME280;46792;38.854;-9.384;2022-11-27T02:22:02;100273.19;;;11.05;95.53
60918;BME280;46792;38.854;-9.384;2022-11-27T02:24:45;100266.97;;;11.04;95.71
60918;BME280;46792;38.854;-9.384;2022-11-27T02:30:04;100270.47;;;11.05;95.79
60918;BME280;46792;38.854;-9.384;2022-11-27T02:32:16;100264.00;;;11.06;95.84
60918;BME280;46792;38.854;-9.384;2022-11-27T02:36:25;100260.25;;;11.07;96.03
60918;BME280;46792;38.854;-9.384;2022-11-27T02:38:31;100264.59;;;11.08;95.96
60918;BME280;46792;38.854;-9.384;2022-11-27T02:42:56;100257.84;;;11.10;95.77
60918;BME280;46792;38.854;-9.384;2022-11-27T02:45:02;100266.53;;;11.13;95.57
60918;BME280;46792;38.854;-9.384;2022-11-27T02:47:04;100268.66;;;11.10;95.72
60918;BME280;46792;38.854;-9.384;2022-11-27T02:49:10;100274.06;;;11.10;95.45
60918;BME280;46792;38.854;-9.384;2022-11-27T02:51:14;100259.50;;;11.11;95.77
60918;BME280;46792;38.854;-9.384;2022-11-27T02:53:20;100267.38;;;11.13;95.67
60918;BME280;46792;38.854;-9.384;2022-11-27T02:55:23;100272.78;;;11.13;95.69
60918;BME280;46792;38.854;-9.384;2022-11-27T02:57:26;100267.38;;;11.13;95.43
60918;BME280;46792;38.854;-9.384;2022-11-27T02:59:49;100269.50;;;11.11;95.04
60918;BME280;46792;38.854;-9.384;2022-11-27T03:01:55;100256.75;;;11.06;94.94
60918;BME280;46792;38.854;-9.384;2022-11-27T03:03:57;100252.63;;;11.04;94.84
60918;BME280;46792;38.854;-9.384;2022-11-27T03:06:04;100265.09;;;11.05;95.01
60918;BME280;46792;38.854;-9.384;2022-11-27T03:08:12;100255.84;;;11.01;94.90
60918;BME280;46792;38.854;-9.384;2022-11-27T03:10:51;100253.13;;;11.01;94.91
60918;BME280;46792;38.854;-9.384;2022-11-27T03:13:07;100251.19;;;10.96;94.90
60918;BME280;46792;38.854;-9.384;2022-11-27T03:15:08;100246.84;;;10.95;95.15
60918;BME280;46792;38.854;-9.384;2022-11-27T03:20:00;100245.97;;;10.89;95.07
60918;BME280;46792;38.854;-9.384;2022-11-27T03:22:03;100250.22;;;10.85;95.17
60918;BME280;46792;38.854;-9.384;2022-11-27T03:24:05;100250.22;;;10.85;95.33
60918;BME280;46792;38.854;-9.384;2022-11-27T03:26:06;100247.78;;;10.84;95.35
60918;BME280;46792;38.854;-9.384;2022-11-27T03:28:09;100249.41;;;10.85;95.51
60918;BME280;46792;38.854;-9.384;2022-11-27T03:30:12;100252.59;;;10.82;95.43
60918;BME280;46792;38.854;-9.384;2022-11-27T03:32:13;100252.88;;;10.80;95.48
60918;BME280;46792;38.854;-9.384;2022-11-27T03:34:14;100251.22;;;10.79;95.69
60918;BME280;46792;38.854;-9.384;2022-11-27T03:36:20;100252.88;;;10.80;95.81
60918;BME280;46792;38.854;-9.384;2022-11-27T03:38:20;100248.53;;;10.79;95.98
60918;BME280;46792;38.854;-9.384;2022-11-27T03:40:26;100251.72;;;10.76;96.38
60918;BME280;46792;38.854;-9.384;2022-11-27T03:44:47;100246.81;;;10.73;96.35
60918;BME280;46792;38.854;-9.384;2022-11-27T03:51:57;100237.00;;;10.67;97.09
60918;BME280;46792;38.854;-9.384;2022-11-27T03:54:11;100238.31;;;10.64;97.19
60918;BME280;46792;38.854;-9.384;2022-11-27T04:00:41;100226.03;;;10.56;97.82
60918;BME280;46792;38.854;-9.384;2022-11-27T04:02:50;100220.63;;;10.56;98.14
60918;BME280;46792;38.854;-9.384;2022-11-27T04:04:51;100228.75;;;10.56;98.58
60918;BME280;46792;38.854;-9.384;2022-11-27T04:06:52;100224.97;;;10.57;98.85
60918;BME280;46792;38.854;-9.384;2022-11-27T04:08:52;100226.34;;;10.60;98.79
60918;BME280;46792;38.854;-9.384;2022-11-27T04:10:53;100228.25;;;10.59;99.16
60918;BME280;46792;38.854;-9.384;2022-11-27T04:12:53;100221.78;;;10.60;99.51
60918;BME280;46792;38.854;-9.384;2022-11-27T04:14:54;100219.66;;;10.62;99.83
60918;BME280;46792;38.854;-9.384;2022-11-27T04:16:54;100225.06;;;10.62;99.42
60918;BME280;46792;38.854;-9.384;2022-11-27T04:18:55;100219.16;;;10.65;99.72
60918;BME280;46792;38.854;-9.384;2022-11-27T04:20:56;100213.50;;;10.67;99.92
60918;BME280;46792;38.854;-9.384;2022-11-27T04:22:56;100213.25;;;10.69;100.00
60918;BME280;46792;38.854;-9.384;2022-11-27T04:24:57;100215.22;;;10.73;99.88
60918;BME280;46792;38.854;-9.384;2022-11-27T04:26:57;100219.56;;;10.74;100.00
60918;BME280;46792;38.854;-9.384;2022-11-27T04:28:58;100222.00;;;10.76;100.00
60918;BME280;46792;38.854;-9.384;2022-11-27T04:33:37;100224.53;;;10.83;100.00
60918;BME280;46792;38.854;-9.384;2022-11-27T04:35:37;100223.47;;;10.84;100.00
60918;BME280;46792;38.854;-9.384;2022-11-27T04:37:38;100222.41;;;10.85;100.00
60918;BME280;46792;38.854;-9.384;2022-11-27T04:39:39;100225.69;;;10.87;100.00
60918;BME280;46792;38.854;-9.384;2022-11-27T04:41:39;100227.06;;;10.89;100.00
60918;BME280;46792;38.854;-9.384;2022-11-27T04:43:40;100226.28;;;10.94;100.00
60918;BME280;46792;38.854;-9.384;2022-11-27T04:45:59;100219.59;;;10.97;100.00
60918;BME280;46792;38.854;-9.384;2022-11-27T04:47:59;100221.22;;;10.98;100.00
60918;BME280;46792;38.854;-9.384;2022-11-27T04:50:00;100219.66;;;11.02;100.00
60918;BME280;46792;38.854;-9.384;2022-11-27T04:52:00;100217.78;;;11.02;100.00
60918;BME280;46792;38.854;-9.384;2022-11-27T04:54:01;100210.25;;;11.04;100.00
60918;BME280;46792;38.854;-9.384;2022-11-27T04:56:02;100210.56;;;11.08;100.00
60918;BME280;46792;38.854;-9.384;2022-11-27T04:58:05;100215.47;;;11.11;100.00
60918;BME280;46792;38.854;-9.384;2022-11-27T05:00:07;100210.06;;;11.11;100.00
60918;BME280;46792;38.854;-9.384;2022-11-27T05:02:07;100219.22;;;11.10;100.00
60918;BME280;46792;38.854;-9.384;2022-11-27T05:04:08;100223.56;;;11.11;100.00
60918;BME280;46792;38.854;-9.384;2022-11-27T05:08:31;100229.00;;;11.16;100.00
60918;BME280;46792;38.854;-9.384;2022-11-27T05:13:02;100226.88;;;11.18;100.00
60918;BME280;46792;38.854;-9.384;2022-11-27T05:15:03;100228.03;;;11.22;99.97
60918;BME280;46792;38.854;-9.384;2022-11-27T05:17:04;100229.09;;;11.21;99.83
60918;BME280;46792;38.854;-9.384;2022-11-27T05:19:04;100233.91;;;11.19;99.88
60918;BME280;46792;38.854;-9.384;2022-11-27T05:21:23;100229.34;;;11.20;99.80
60918;BME280;46792;38.854;-9.384;2022-11-27T05:23:42;100237.69;;;11.18;99.83
60918;BME280;46792;38.854;-9.384;2022-11-27T05:25:43;100233.13;;;11.19;99.87
60918;BME280;46792;38.854;-9.384;2022-11-27T05:27:43;100235.56;;;11.20;99.91
60918;BME280;46792;38.854;-9.384;2022-11-27T05:29:44;100216.66;;;11.20;99.89
60918;BME280;46792;38.854;-9.384;2022-11-27T05:31:46;100231.78;;;11.21;100.00
60918;BME280;46792;38.854;-9.384;2022-11-27T05:33:46;100231.22;;;11.19;100.00
60918;BME280;46792;38.854;-9.384;2022-11-27T05:35:47;100225.81;;;11.19;100.00
60918;BME280;46792;38.854;-9.384;2022-11-27T05:37:47;100226.38;;;11.21;100.00
60918;BME280;46792;38.854;-9.384;2022-11-27T05:39:48;100230.16;;;11.20;100.00
60918;BME280;46792;38.854;-9.384;2022-11-27T05:41:48;100224.69;;;11.15;99.84
60918;BME280;46792;38.854;-9.384;2022-11-27T05:43:49;100222.50;;;11.12;99.94
60918;BME280;46792;38.854;-9.384;2022-11-27T05:45:50;100226.00;;;11.13;99.94
60918;BME280;46792;38.854;-9.384;2022-11-27T05:47:50;100217.59;;;11.09;100.00
60918;BME280;46792;38.854;-9.384;2022-11-27T05:49:51;100223.81;;;11.09;99.66
60918;BME280;46792;38.854;-9.384;2022-11-27T05:51:51;100226.75;;;11.08;99.89
60918;BME280;46792;38.854;-9.384;2022-11-27T05:53:52;100230.53;;;11.07;100.00
60918;BME280;46792;38.854;-9.384;2022-11-27T05:55:53;100228.63;;;11.07;100.00
60918;BME280;46792;38.854;-9.384;2022-11-27T05:57:53;100232.16;;;11.08;99.97
60918;BME280;46792;38.854;-9.384;2022-11-27T05:59:54;100224.56;;;11.05;99.92
60918;BME280;46792;38.854;-9.384;2022-11-27T06:01:55;100232.66;;;11.05;99.98
60918;BME280;46792;38.854;-9.384;2022-11-27T06:03:55;100224.47;;;11.00;99.90
60918;BME280;46792;38.854;-9.384;2022-11-27T06:05:56;100230.41;;;10.97;99.86
60918;BME280;46792;38.854;-9.384;2022-11-27T06:07:56;100230.91;;;10.93;99.76
60918;BME280;46792;38.854;-9.384;2022-11-27T06:09:57;100221.66;;;10.89;99.85
60918;BME280;46792;38.854;-9.384;2022-11-27T06:11:57;100223.78;;;10.87;99.86
60918;BME280;46792;38.854;-9.384;2022-11-27T06:13:58;100219.94;;;10.83;99.83
60918;BME280;46792;38.854;-9.384;2022-11-27T06:16:04;100232.38;;;10.84;100.00
60918;BME280;46792;38.854;-9.384;2022-11-27T06:18:05;100229.13;;;10.82;100.00
60918;BME280;46792;38.854;-9.384;2022-11-27T06:20:06;100232.06;;;10.80;99.94
60918;BME280;46792;38.854;-9.384;2022-11-27T06:22:07;100241.47;;;10.78;100.00
60918;BME280;46792;38.854;-9.384;2022-11-27T06:24:12;100233.06;;;10.74;100.00
60918;BME280;46792;38.854;-9.384;2022-11-27T06:26:20;100235.78;;;10.74;100.00
60918;BME280;46792;38.854;-9.384;2022-11-27T06:31:04;100239.75;;;10.72;99.97
60918;BME280;46792;38.854;-9.384;2022-11-27T06:33:05;100237.31;;;10.70;100.00
60918;BME280;46792;38.854;-9.384;2022-11-27T06:35:06;100237.31;;;10.70;100.00
60918;BME280;46792;38.854;-9.384;2022-11-27T06:37:07;100238.97;;;10.71;100.00
60918;BME280;46792;38.854;-9.384;2022-11-27T06:41:45;100228.38;;;10.70;100.00
60918;BME280;46792;38.854;-9.384;2022-11-27T06:43:46;100233.22;;;10.68;100.00
60918;BME280;46792;38.854;-9.384;2022-11-27T06:45:57;100218.66;;;10.69;100.00
60918;BME280;46792;38.854;-9.384;2022-11-27T06:47:58;100226.22;;;10.67;100.00
60918;BME280;46792;38.854;-9.384;2022-11-27T06:49:59;100230.47;;;10.62;100.00
60918;BME280;46792;38.854;-9.384;2022-11-27T06:51:59;100231.75;;;10.60;100.00
60918;BME280;46792;38.854;-9.384;2022-11-27T06:54:01;100230.94;;;10.59;100.00
60918;BME280;46792;38.854;-9.384;2022-11-27T06:56:06;100228.50;;;10.58;100.00
60918;BME280;46792;38.854;-9.384;2022-11-27T06:58:08;100227.66;;;10.57;100.00
60918;BME280;46792;38.854;-9.384;2022-11-27T07:00:09;100233.34;;;10.56;100.00
60918;BME280;46792;38.854;-9.384;2022-11-27T07:02:13;100235.69;;;10.52;100.00
60918;BME280;46792;38.854;-9.384;2022-11-27T07:04:14;100233.25;;;10.50;100.00
60918;BME280;46792;38.854;-9.384;2022-11-27T07:06:18;100226.47;;;10.48;100.00
60918;BME280;46792;38.854;-9.384;2022-11-27T07:08:20;100221.38;;;10.52;100.00
60918;BME280;46792;38.854;-9.384;2022-11-27T07:10:21;100220.00;;;10.49;100.00
60918;BME280;46792;38.854;-9.384;2022-11-27T07:12:22;100224.56;;;10.48;100.00
60918;BME280;46792;38.854;-9.384;2022-11-27T07:14:22;100222.72;;;10.49;100.00
60918;BME280;46792;38.854;-9.384;2022-11-27T07:16:24;100217.53;;;10.47;100.00
60918;BME280;46792;38.854;-9.384;2022-11-27T07:18:25;100218.94;;;10.50;100.00
60918;BME280;46792;38.854;-9.384;2022-11-27T07:20:25;100222.72;;;10.49;100.00
60918;BME280;46792;38.854;-9.384;2022-11-27T07:22:26;100220.56;;;10.51;100.00
60918;BME280;46792;38.854;-9.384;2022-11-27T07:24:27;100223.25;;;10.51;100.00
60918;BME280;46792;38.854;-9.384;2022-11-27T07:26:28;100220.00;;;10.49;100.00
60918;BME280;46792;38.854;-9.384;2022-11-27T07:33:44;100227.13;;;10.38;100.00
60918;BME280;46792;38.854;-9.384;2022-11-27T07:35:45;100221.13;;;10.36;100.00
60918;BME280;46792;38.854;-9.384;2022-11-27T07:37:49;100227.31;;;10.37;100.00
60918;BME280;46792;38.854;-9.384;2022-11-27T07:39:49;100227.31;;;10.37;100.00
60918;BME280;46792;38.854;-9.384;2022-11-27T07:41:50;100224.88;;;10.35;100.00
60918;BME280;46792;38.854;-9.384;2022-11-27T07:43:50;100220.84;;;10.38;100.00
60918;BME280;46792;38.854;-9.384;2022-11-27T07:45:51;100213.03;;;10.36;100.00
60918;BME280;46792;38.854;-9.384;2022-11-27T07:50:29;100209.03;;;10.39;100.00
60918;BME280;46792;38.854;-9.384;2022-11-27T07:52:39;100206.69;;;10.42;100.00
60918;BME280;46792;38.854;-9.384;2022-11-27T07:54:40;100209.91;;;10.44;100.00
60918;BME280;46792;38.854;-9.384;2022-11-27T07:56:40;100221.56;;;10.45;100.00
60918;BME280;46792;38.854;-9.384;2022-11-27T07:58:41;100218.03;;;10.44;100.00
60918;BME280;46792;38.854;-9.384;2022-11-27T08:00:41;100211.00;;;10.43;100.00
60918;BME280;46792;38.854;-9.384;2022-11-27T08:02:42;100217.47;;;10.42;100.00
60918;BME280;46792;38.854;-9.384;2022-11-27T08:04:43;100221.78;;;10.43;100.00
60918;BME280;46792;38.854;-9.384;2022-11-27T08:07:02;100213.47;;;10.45;100.00
60918;BME280;46792;38.854;-9.384;2022-11-27T08:11:41;100209.53;;;10.53;100.00
60918;BME280;46792;38.854;-9.384;2022-11-27T08:13:42;100223.09;;;10.58;100.00
60918;BME280;46792;38.854;-9.384;2022-11-27T08:15:42;100218.81;;;10.62;100.00
60918;BME280;46792;38.854;-9.384;2022-11-27T08:23:01;100224.28;;;10.84;100.00
60918;BME280;46792;38.854;-9.384;2022-11-27T08:25:02;100227.81;;;10.85;100.00
60918;BME280;46792;38.854;-9.384;2022-11-27T08:27:02;100234.84;;;10.86;100.00
60918;BME280;46792;38.854;-9.384;2022-11-27T08:32:18;100238.75;;;10.95;100.00
60918;BME280;46792;38.854;-9.384;2022-11-27T08:34:18;100245.84;;;11.01;100.00
60918;BME280;46792;38.854;-9.384;2022-11-27T08:36:19;100247.22;;;11.04;100.00
60918;BME280;46792;38.854;-9.384;2022-11-27T08:38:20;100244.34;;;11.10;100.00
60918;BME280;46792;38.854;-9.384;2022-11-27T08:40:21;100246.28;;;11.15;100.00
60918;BME280;46792;38.854;-9.384;2022-11-27T08:42:28;100250.13;;;11.19;100.00
60918;BME280;46792;38.854;-9.384;2022-11-27T08:44:28;100255.34;;;11.26;100.00
60918;BME280;46792;38.854;-9.384;2022-11-27T08:46:29;100254.66;;;11.36;100.00
60918;BME280;46792;38.854;-9.384;2022-11-27T08:48:29;100258.88;;;11.49;100.00
60918;BME280;46792;38.854;-9.384;2022-11-27T08:50:30;100267.88;;;11.54;100.00
60918;BME280;46792;38.854;-9.384;2022-11-27T08:52:31;100264.75;;;11.63;100.00
60918;BME280;46792;38.854;-9.384;2022-11-27T08:54:31;100262.06;;;11.68;100.00
60918;BME280;46792;38.854;-9.384;2022-11-27T08:58:52;100262.38;;;11.71;100.00
60918;BME280;46792;38.854;-9.384;2022-11-27T09:00:52;100264.34;;;11.76;100.00
60918;BME280;46792;38.854;-9.384;2022-11-27T09:02:53;100267.66;;;11.83;100.00
60918;BME280;46792;38.854;-9.384;2022-11-27T09:04:54;100270.72;;;11.92;100.00
60918;BME280;46792;38.854;-9.384;2022-11-27T09:06:54;100270.91;;;12.08;100.00
60918;BME280;46792;38.854;-9.384;2022-11-27T09:08:56;100276.44;;;12.18;100.00
60918;BME280;46792;38.854;-9.384;2022-11-27T09:11:17;100267.88;;;12.31;100.00
60918;BME280;46792;38.854;-9.384;2022-11-27T09:13:18;100266.59;;;12.44;100.00
60918;BME280;46792;38.854;-9.384;2022-11-27T09:15:18;100271.84;;;12.56;100.00
60918;BME280;46792;38.854;-9.384;2022-11-27T09:17:19;100267.38;;;12.72;100.00
60918;BME280;46792;38.854;-9.384;2022-11-27T09:19:19;100271.28;;;12.87;100.00
60918;BME280;46792;38.854;-9.384;2022-11-27T09:21:23;100272.38;;;12.91;100.00
60918;BME280;46792;38.854;-9.384;2022-11-27T09:23:24;100268.09;;;13.00;100.00
60918;BME280;46792;38.854;-9.384;2022-11-27T09:25:43;100269.75;;;13.06;100.00
60918;BME280;46792;38.854;-9.384;2022-11-27T09:28:02;100277.34;;;13.09;100.00
60918;BME280;46792;38.854;-9.384;2022-11-27T09:30:21;100272.47;;;13.12;100.00
60918;BME280;46792;38.854;-9.384;2022-11-27T09:32:21;100273.59;;;13.16;100.00
60918;BME280;46792;38.854;-9.384;2022-11-27T09:34:22;100280.13;;;13.20;100.00
60918;BME280;46792;38.854;-9.384;2022-11-27T09:36:24;100275.50;;;13.20;100.00
60918;BME280;46792;38.854;-9.384;2022-11-27T09:38:25;100281.78;;;13.26;100.00
60918;BME280;46792;38.854;-9.384;2022-11-27T09:40:25;100280.75;;;13.37;100.00
60918;BME280;46792;38.854;-9.384;2022-11-27T09:42:37;100282.41;;;13.38;99.85
60918;BME280;46792;38.854;-9.384;2022-11-27T09:44:43;100288.63;;;13.39;100.00
60918;BME280;46792;38.854;-9.384;2022-11-27T09:46:45;100281.34;;;13.45;99.77
60918;BME280;46792;38.854;-9.384;2022-11-27T09:48:48;100280.28;;;13.46;100.00
60918;BME280;46792;38.854;-9.384;2022-11-27T09:50:51;100290.59;;;13.49;100.00
60918;BME280;46792;38.854;-9.384;2022-11-27T09:53:04;100287.66;;;13.61;100.00
60918;BME280;46792;38.854;-9.384;2022-11-27T09:55:29;100284.44;;;13.74;100.00
60918;BME280;46792;38.854;-9.384;2022-11-27T09:57:37;100284.75;;;13.83;100.00
60918;BME280;46792;38.854;-9.384;2022-11-27T10:00:03;100283.97;;;14.03;100.00
60918;BME280;46792;38.854;-9.384;2022-11-27T10:02:33;100293.22;;;14.18;100.00
60918;BME280;46792;38.854;-9.384;2022-11-27T10:04:34;100278.31;;;14.30;100.00
60918;BME280;46792;38.854;-9.384;2022-11-27T10:06:38;100274.22;;;14.49;100.00
60918;BME280;46792;38.854;-9.384;2022-11-27T10:09:13;100276.69;;;14.66;100.00
60918;BME280;46792;38.854;-9.384;2022-11-27T10:15:53;100281.78;;;15.09;100.00
60918;BME280;46792;38.854;-9.384;2022-11-27T10:18:29;100279.31;;;15.23;100.00
60918;BME280;46792;38.854;-9.384;2022-11-27T10:20:51;100267.56;;;15.32;99.98
60918;BME280;46792;38.854;-9.384;2022-11-27T10:30:20;100268.13;;;15.85;100.00
60918;BME280;46792;38.854;-9.384;2022-11-27T10:32:24;100262.31;;;16.07;100.00
60918;BME280;46792;38.854;-9.384;2022-11-27T10:37:25;100261.59;;;16.31;99.57
60918;BME280;46792;38.854;-9.384;2022-11-27T10:39:34;100263.66;;;16.44;99.11
60918;BME280;46792;38.854;-9.384;2022-11-27T10:41:42;100261.09;;;16.58;98.54
60918;BME280;46792;38.854;-9.384;2022-11-27T10:43:47;100259.94;;;16.64;97.75
60918;BME280;46792;38.854;-9.384;2022-11-27T10:46:09;100259.25;;;16.78;97.01
60918;BME280;46792;38.854;-9.384;2022-11-27T10:48:12;100262.69;;;16.88;96.57
60918;BME280;46792;38.854;-9.384;2022-11-27T10:50:17;100255.09;;;16.85;96.61
60918;BME280;46792;38.854;-9.384;2022-11-27T10:55:02;100267.00;;;17.00;96.42
60918;BME280;46792;38.854;-9.384;2022-11-27T10:59:32;100274.13;;;17.20;95.48
60918;BME280;46792;38.854;-9.384;2022-11-27T11:01:46;100269.72;;;17.24;94.93
60918;BME280;46792;38.854;-9.384;2022-11-27T11:03:47;100273.47;;;17.28;94.64
60918;BME280;46792;38.854;-9.384;2022-11-27T11:06:00;100270.69;;;17.33;93.90
60918;BME280;46792;38.854;-9.384;2022-11-27T11:08:20;100270.03;;;17.42;93.21
60918;BME280;46792;38.854;-9.384;2022-11-27T11:10:31;100268.09;;;17.47;93.29
60918;BME280;46792;38.854;-9.384;2022-11-27T11:12:32;100266.22;;;17.43;91.44
60918;BME280;46792;38.854;-9.384;2022-11-27T11:14:33;100279.31;;;17.41;92.17
60918;BME280;46792;38.854;-9.384;2022-11-27T11:16:53;100280.22;;;17.36;91.93
60918;BME280;46792;38.854;-9.384;2022-11-27T11:18:55;100284.66;;;17.32;91.68
60918;BME280;46792;38.854;-9.384;2022-11-27T11:20:59;100279.41;;;17.36;91.73
60918;BME280;46792;38.854;-9.384;2022-11-27T11:23:00;100278.00;;;17.38;91.46
60918;BME280;46792;38.854;-9.384;2022-11-27T11:25:22;100283.28;;;17.54;91.53
60918;BME280;46792;38.854;-9.384;2022-11-27T11:27:28;100283.50;;;17.57;92.10
60918;BME280;46792;38.854;-9.384;2022-11-27T11:29:39;100273.72;;;17.56;92.30
60918;BME280;46792;38.854;-9.384;2022-11-27T11:31:41;100275.03;;;17.59;91.86
60918;BME280;46792;38.854;-9.384;2022-11-27T11:33:51;100272.34;;;17.54;92.29
60918;BME280;46792;38.854;-9.384;2022-11-27T11:36:07;100262.84;;;17.51;92.38
60918;BME280;46792;38.854;-9.384;2022-11-27T11:38:16;100261.97;;;17.56;92.69
60918;BME280;46792;38.854;-9.384;2022-11-27T11:40:30;100252.09;;;17.60;92.32
60918;BME280;46792;38.854;-9.384;2022-11-27T11:42:34;100256.44;;;17.61;92.50
60918;BME280;46792;38.854;-9.384;2022-11-27T11:44:37;100252.34;;;17.58;93.07
60918;BME280;46792;38.854;-9.384;2022-11-27T11:46:56;100252.81;;;17.66;93.60
60918;BME280;46792;38.854;-9.384;2022-11-27T11:49:28;100249.41;;;17.74;94.07
60918;BME280;46792;38.854;-9.384;2022-11-27T11:53:58;100241.16;;;17.79;92.79
60918;BME280;46792;38.854;-9.384;2022-11-27T11:56:32;100236.22;;;17.81;92.70
60918;BME280;46792;38.854;-9.384;2022-11-27T11:58:55;100218.41;;;17.84;92.68
60918;BME280;46792;38.854;-9.384;2022-11-27T12:03:25;100215.25;;;17.96;92.37
60918;BME280;46792;38.854;-9.384;2022-11-27T12:15:29;100215.81;;;18.31;91.03
60918;BME280;46792;38.854;-9.384;2022-11-27T12:19:57;100191.50;;;18.29;90.69
60918;BME280;46792;38.854;-9.384;2022-11-27T12:22:43;100198.31;;;18.32;90.55
60918;BME280;46792;38.854;-9.384;2022-11-27T12:25:15;100176.72;;;18.30;90.79
60918;BME280;46792;38.854;-9.384;2022-11-27T12:27:38;100190.69;;;18.29;91.24
60918;BME280;46792;38.854;-9.384;2022-11-27T12:30:02;100173.38;;;18.33;92.01
60918;BME280;46792;38.854;-9.384;2022-11-27T12:42:37;100172.91;;;18.45;89.91
60918;BME280;46792;38.854;-9.384;2022-11-27T12:44:59;100169.75;;;18.38;89.25
60918;BME280;46792;38.854;-9.384;2022-11-27T12:49:36;100151.72;;;18.23;89.48
60918;BME280;46792;38.854;-9.384;2022-11-27T12:57:01;100131.00;;;18.36;89.57